Warning: Javascript must be enabled to use all the features on this page!


Page Loading - Please Wait...

Click to hideNews Bulletins
  • Explore the NEW USGS National Water Dashboard interactive map to access real-time water data from over 13,500 stations nationwide.
  • Full News RSS icon
  • USGS has scheduled planned maintenance to our IT infrastructure, starting Tuesday, June 28, 2022, from 8:00-10:00am Eastern Daylight Time (EDT). During the maintenance period, there will be a short interruption in the availability of the most recent time-series data. Any backlog will be made available following conclusion of the scheduled maintenance.

Peak Streamflow for the Nation

USGS 03433500 HARPETH RIVER AT BELLEVUE, TN

Davidson County, Tennessee
Hydrologic Unit Code 05130204
Latitude  36°03'16.21", Longitude  86°55'42.63" NAD27
Drainage area 409  square miles
Contributing drainage area 393  square miles
Gage datum 541.04 feet above NGVD29
Output formats
Table
Graph
Tab-separated file
peakfq (watstore) format
Reselect output format
Water
Year
Date Gage
Height
(feet)
Stream-
flow
(cfs)
1921 1921-04-17 12.50 7,740
1922 1922-03-10 18.80 13,400
1923 1923-03-22 13.70 8,580
1924 1924-01-04 17.10 11,300
1925 1925-04-10 13.30 8,300
1926 1926-01-22 11.80 7,250
1927 1927-03-13 21.70 18,800
1928 1928-06-29 17.40 11,600
1929 1929-03-23 22.30 20,200
1932 1932-02-04 19.00 13,700
1933 1933-02-20 19.00 13,700
1934 1934-03-25 16.323 11,100
1935 1935-03-13 18.18 15,000
1936 1936-04-07 15.43 9,880
1937 1937-01-03 19.30 17,300
1938 1938-01-22 15.55 10,200
1939 1939-02-15 15.59 10,200
1940 1940-04-19 15.46 9,780
1941 1941-07-04 7.73 3,520
1942 1942-04-09 8.56 4,360
1943 1943-03-13 15.56 9,930
1944 1944-02-18 17.78 13,700
1945 1945-01-01 17.43 12,700
1946 1946-01-08 19.81 19,300
1947 1947-01-15 15.55 9,740
1948 1948-02-13 24.34 32,100
1949 1949-01-06 15.21 8,820
1950 1950-02-01 18.46 15,600
1951 1951-02-01 16.46 10,500
1952 1951-12-09 17.72 13,300
1953 1953-03-03 14.64 8,380
1954 1954-01-21 18.21 14,700
1955 1955-03-22 22.18 28,900
1956 1956-02-18 20.15 20,500
1957 1957-01-29 17.04 11,700
1958 1957-11-18 15.45 9,160
1959 1959-02-14 11.59 6,210
1960 1960-06-17 18.74 16,000
1961 1961-03-08 14.29 8,020
1962 1962-02-27 20.98 23,700
1963 1963-03-12 16.57 10,700
1964 1964-03-05 13.96 7,740
1965 1965-03-27 16.98 11,500
1966 1966-02-13 11.08 5,860
1967 1967-03-07 18.12 14,300
1968 1968-01-11 11.56 6,590
1969 1969-02-02 12.89 7,390
1970 1969-12-31 18.76 16,100
1971 1971-02-22 13.50 8,000
1972 1972-07-28 14.50 9,000
1973 1973-03-16 19.62 19,000
1974 1973-11-28 19.59 19,200
1975 1975-03-13 24.27 32,000
1976 1975-10-18 16.16 12,300
1977 1977-03-04 18.61 16,900
1978 1978-01-25 18.07 15,800
1979 1979-05-04 21.87 27,400
1980 1980-03-21 20.59 22,300
1981 1981-03-30 9.50 5,100
1982 1982-01-23 13.68 9,040
1983 1983-05-20 18.97 17,400
1984 1984-05-08 21.02 23,800
1985 1984-11-28 13.27 8,590
1986 1986-02-18 14.12 9,550
1987 1987-02-28 15.45 11,300
1988 1987-12-26 17.20 13,900
1989 1989-03-06 18.75 18,400
1990 1990-02-04 20.09 20,400
1991 1991-02-20 17.60 14,600
1992 1991-12-03 18.08 15,600
1993 1993-05-04 16.63 12,600
1994 1994-03-28 18.94 17,100
1995 1995-03-08 15.66 11,200
1996 1995-10-05 13.61 8,890
1997 1997-03-03 19.09 17,500
1998 1998-06-05 16.67 12,600
1999 1999-01-23 18.40 15,900
2000 2000-05-25 12.97 8,240
2001 2001-02-17 17.90 14,800
2002 2002-01-25 17.69 14,400
2003 2003-02-16 19.53 18,700
2004 2004-02-06 20.04 20,100
2005 2004-12-01 17.29 13,700
2006 2006-01-23 15.08 10,500
2007 2007-01-05 8.51 4,750
2008 2008-04-05 14.41 9,730
2009 2009-05-02 14.84 10,200
2010 2010-05-02 33.23 46,500
2011 2011-04-28 15.81 11,400
2012 2012-01-23 11.00 6,760
2013 2013-04-29 17.73 14,500
2014 2014-04-29 16.54 12,400
2015 2015-02-22 15.42 10,900
2016 2015-12-25 13.27 8,620
2017 2017-04-23 16.04 11,700
2018 2017-11-07 16.71 12,700
2019 2019-02-23 17.79 14,600
2020 2020-02-13 15.99 11,600
2021 2021-03-28 23.29 30,100
?
  Peak Gage-Height Qualification Codes.